Arlington, California
Current Conditions -  °F | °C
As of 9:53 AM on Monday 20 Oct 2014 (Local Time) from KRAL Reporting Station
Haze Haze  
Wind Chill: 63°   Ceiling: 600
Heat Index: 63°   Visibility: 2mi
Dew Point: 59°   Wind: 0mph
Humidity: 87%   Direction: NA
Pressure: 29.97"   Gusts: NA
Location:  33.8878°N, 117.453°W
Report Text: KRAL 201653Z 00000KT 2SM BR OVC006 17/15 A2997 RMK AO2 SLP135 T01720150
Loading
Personal Weather Stations






























Interactive Weather Map
Tropical Storm Tracking
New forecast layout! Learn more

10-Day Weather Forecast

Advertisements
Track Severe Weather on mobile